Terminal Aerodrome Forecast
Issued by NWS Jackson, MS

Home | Current Version | Previous Version | Text Only | Print | Product List | Glossary On
Versions: 1 2 3 4 5 6 7 8 9 10 11 12 13 14 15 16 17
000
FTUS44 KMEG 281720
TAFTUP
TAF
KTUP 281720Z 2818/2918 36007KT P6SM VCSH BKN120
     FM282000 05010KT P6SM -RA SCT040 OVC050
     FM290300 03005KT P6SM SHRA SCT010 OVC050
     FM290900 02007KT P6SM OVC010
     FM291400 01006KT P6SM BKN050=

USA.gov is the U.S. government's official web portal to all federal, state and local government web resources and services.